Time;durP1;ratioP1;P1;durP2;ratioP2;P2;SDS_P1;SDS_P2;PMS_P1;PMS_P2;Temp;Humidity;BMP_temperature;BMP_pressure;BME280_temperature;BME280_humidity;BME280_pressure;Samples;Min_cycle;Max_cycle;Signal;HPM_P1;HPM_P2
2022/03/23 00:02:03;;;;;;;;;;;;;;;;;;5095617;28;19952;-69
2022/03/23 00:04:29;;;;;;;;;;;;;;;;;;5095902;28;19973;-67
2022/03/23 00:06:55;;;;;;;;;;;;;;;;;;5077449;28;20006;-68
2022/03/23 00:09:21;;;;;;;;;;;;;;;;;;5095554;28;20363;-68
2022/03/23 00:11:47;;;;;;;;;;;;;;;;;;5095251;28;19908;-67
2022/03/23 00:14:13;;;;;;;;;;;;;;;;;;5095828;28;19934;-69
2022/03/23 00:16:39;;;;;;;;;;;;;;;;;;5095693;28;19920;-68
2022/03/23 00:19:08;;;;;;;;;;;;;;;;;;5077004;28;20312;-68
2022/03/23 00:21:34;;;;;;;;;;;;;;;;;;5095364;28;20291;-68
2022/03/23 00:24:00;;;;;;;;;;;;;;;;;;5077221;28;19923;-68
2022/03/23 00:26:26;;;;;;;;;;;;;;;;;;5094869;28;19908;-68
2022/03/23 00:28:52;;;;;;;;;;;;;;;;;;5077110;28;19937;-68
2022/03/23 00:31:22;;;;;;;;;;;;;;;;;;5095177;28;19914;-68
2022/03/23 00:33:48;;;;;;;;;;;;;;;;;;5095083;28;19915;-68
2022/03/23 00:36:14;;;;;;;;;;;;;;;;;;5077080;28;19915;-68
2022/03/23 00:38:40;;;;;;;;;;;;;;;;;;5095453;28;19908;-68
2022/03/23 00:41:06;;;;;;;;;;;;;;;;;;5094757;28;19920;-69
2022/03/23 00:43:32;;;;;;;;;;;;;;;;;;5076930;28;20449;-68
2022/03/23 00:45:58;;;;;;;;;;;;;;;;;;5095005;28;19936;-68
2022/03/23 00:48:24;;;;;;;;;;;;;;;;;;5094411;28;19908;-68
2022/03/23 00:50:50;;;;;;;;;;;;;;;;;;5076594;28;20379;-68
2022/03/23 00:53:17;;;;;;;;;;;;;;;;;;5094869;28;19960;-70
2022/03/23 00:55:43;;;;;;;;;;;;;;;;;;5094438;28;19943;-67
2022/03/23 00:58:09;;;;;;;;;;;;;;;;;;5094713;28;20343;-68
2022/03/23 01:00:35;;;;;;;;;;;;;;;;;;5094694;28;19908;-68
2022/03/23 01:03:02;;;;;;;;;;;;;;;;;;5093862;28;19920;-68
2022/03/23 01:05:27;;;;;;;;;;;;;;;;;;5094868;28;19908;-68
2022/03/23 01:07:54;;;;;;;;;;;;;;;;;;5076095;28;20037;-68
2022/03/23 01:10:21;;;;;;;;;;;;;;;;;;5095303;28;19909;-68
2022/03/23 01:12:47;;;;;;;;;;;;;;;;;;5075904;28;19930;-69
2022/03/23 01:15:13;;;;;;;;;;;;;;;;;;5094258;28;19908;-69
2022/03/23 01:17:39;;;;;;;;;;;;;;;;;;5076221;28;19912;-69
2022/03/23 01:20:05;;;;;;;;;;;;;;;;;;5094490;28;19961;-69
2022/03/23 01:22:31;;;;;;;;;;;;;;;;;;5093780;28;19916;-68
2022/03/23 01:24:57;;;;;;;;;;;;;;;;;;5094261;28;19912;-68
2022/03/23 01:27:23;;;;;;;;;;;;;;;;;;5094048;28;19915;-69
2022/03/23 01:29:49;;;;;;;;;;;;;;;;;;5093991;28;19976;-68
2022/03/23 01:32:15;;;;;;;;;;;;;;;;;;5094200;28;20336;-69
2022/03/23 01:34:41;;;;;;;;;;;;;;;;;;5094425;28;20317;-69
2022/03/23 01:37:07;;;;;;;;;;;;;;;;;;5093761;28;19916;-69
2022/03/23 01:39:33;;;;;;;;;;;;;;;;;;5075959;28;20331;-68
2022/03/23 01:41:59;;;;;;;;;;;;;;;;;;5075983;28;19947;-71
2022/03/23 01:44:25;;;;;;;;;;;;;;;;;;5093553;28;19978;-69
2022/03/23 01:46:51;;;;;;;;;;;;;;;;;;5076214;28;20379;-69
2022/03/23 01:49:17;;;;;;;;;;;;;;;;;;5094041;28;19958;-69
2022/03/23 01:51:44;;;;;;;;;;;;;;;;;;5093501;28;19908;-69
2022/03/23 01:54:10;;;;;;;;;;;;;;;;;;5094503;28;19915;-69
2022/03/23 01:56:36;;;;;;;;;;;;;;;;;;5094057;28;19908;-69
2022/03/23 01:59:01;;;;;;;;;;;;;;;;;;5093570;28;19994;-69
2022/03/23 02:01:28;;;;;;;;;;;;;;;;;;5093908;28;19915;-69
2022/03/23 02:03:54;;;;;;;;;;;;;;;;;;5093416;28;20007;-69
2022/03/23 02:06:20;;;;;;;;;;;;;;;;;;5093433;28;19991;-69
2022/03/23 02:08:47;;;;;;;;;;;;;;;;;;5094329;28;19915;-69
2022/03/23 02:11:13;;;;;;;;;;;;;;;;;;5093459;28;19916;-69
2022/03/23 02:13:39;;;;;;;;;;;;;;;;;;5093822;28;20286;-69
2022/03/23 02:16:05;;;;;;;;;;;;;;;;;;5093730;28;19919;-69
2022/03/23 02:18:31;;;;;;;;;;;;;;;;;;5093368;28;20261;-69
2022/03/23 02:20:57;;;;;;;;;;;;;;;;;;5075566;28;19914;-69
2022/03/23 02:23:23;;;;;;;;;;;;;;;;;;5094010;28;20354;-69
2022/03/23 02:25:49;;;;;;;;;;;;;;;;;;5078587;28;19954;-69
2022/03/23 02:28:15;;;;;;;;;;;;;;;;;;5079483;28;19909;-69
2022/03/23 02:30:41;;;;;;;;;;;;;;;;;;5097729;28;20360;-69
2022/03/23 02:33:09;;;;;;;;;;;;;;;;;;5079043;28;19950;-69
2022/03/23 02:35:35;;;;;;;;;;;;;;;;;;5097661;28;20377;-69
2022/03/23 02:38:01;;;;;;;;;;;;;;;;;;5097483;28;19944;-69
2022/03/23 02:40:27;;;;;;;;;;;;;;;;;;5078965;28;19981;-69
2022/03/23 02:42:54;;;;;;;;;;;;;;;;;;5079104;28;19916;-69
2022/03/23 02:45:20;;;;;;;;;;;;;;;;;;5097422;28;19908;-69
2022/03/23 02:47:46;;;;;;;;;;;;;;;;;;5097023;28;19916;-69
2022/03/23 02:50:12;;;;;;;;;;;;;;;;;;5097252;28;19961;-69
2022/03/23 03:01:52;;;;;;;;;;;;;;;;;;5097276;28;20009;-69
2022/03/23 03:03:38;;;;;;;;;;;;;;;;;;5096881;28;19980;-69
2022/03/23 03:06:04;;;;;;;;;;;;;;;;;;5097005;28;20380;-69
2022/03/23 03:08:45;;;;;;;;;;;;;;;;;;5096612;28;19912;-69
2022/03/23 03:11:11;;;;;;;;;;;;;;;;;;5078677;28;19916;-69
2022/03/23 03:13:38;;;;;;;;;;;;;;;;;;5096911;28;19912;-69
2022/03/23 03:16:04;;;;;;;;;;;;;;;;;;5078136;28;19908;-68
2022/03/23 03:18:30;;;;;;;;;;;;;;;;;;5096793;28;19915;-69
2022/03/23 03:20:56;;;;;;;;;;;;;;;;;;5097006;28;20296;-69
2022/03/23 03:23:22;;;;;;;;;;;;;;;;;;5096249;28;20041;-69
2022/03/23 03:25:48;;;;;;;;;;;;;;;;;;5096650;28;19977;-69
2022/03/23 03:28:14;;;;;;;;;;;;;;;;;;5096490;28;20015;-69
2022/03/23 03:30:40;;;;;;;;;;;;;;;;;;5096124;28;19908;-69
2022/03/23 03:33:06;;;;;;;;;;;;;;;;;;5078296;28;19912;-69
2022/03/23 03:35:32;;;;;;;;;;;;;;;;;;5077328;28;19908;-69
2022/03/23 03:37:58;;;;;;;;;;;;;;;;;;5078195;28;19916;-69
2022/03/23 03:40:24;;;;;;;;;;;;;;;;;;5096662;28;19931;-69
2022/03/23 03:42:50;;;;;;;;;;;;;;;;;;5095867;28;19916;-69
2022/03/23 03:45:16;;;;;;;;;;;;;;;;;;5096207;28;20001;-69
2022/03/23 03:47:42;;;;;;;;;;;;;;;;;;5096240;28;19915;-69
2022/03/23 03:50:08;;;;;;;;;;;;;;;;;;5077575;28;20356;-69
2022/03/23 03:52:34;;;;;;;;;;;;;;;;;;5096197;28;19936;-69
2022/03/23 03:55:00;;;;;;;;;;;;;;;;;;5096107;28;19908;-69
2022/03/23 03:57:26;;;;;;;;;;;;;;;;;;5095640;28;20364;-69
2022/03/23 03:59:52;;;;;;;;;;;;;;;;;;5096299;28;20026;-69
2022/03/23 04:02:21;;;;;;;;;;;;;;;;;;5095903;28;20415;-69
2022/03/23 04:04:47;;;;;;;;;;;;;;;;;;5077397;28;20420;-69
2022/03/23 04:07:13;;;;;;;;;;;;;;;;;;5095831;28;20311;-69
2022/03/23 04:09:39;;;;;;;;;;;;;;;;;;5095852;28;19912;-69
2022/03/23 04:12:05;;;;;;;;;;;;;;;;;;5095327;28;19908;-69
2022/03/23 04:14:31;;;;;;;;;;;;;;;;;;5096211;28;20351;-69
2022/03/23 04:16:57;;;;;;;;;;;;;;;;;;5077542;28;20383;-69
2022/03/23 04:19:23;;;;;;;;;;;;;;;;;;5076943;28;19915;-69
2022/03/23 04:21:49;;;;;;;;;;;;;;;;;;5077364;28;20261;-69
2022/03/23 04:24:15;;;;;;;;;;;;;;;;;;5095596;28;19916;-69
2022/03/23 04:26:44;;;;;;;;;;;;;;;;;;5095053;28;20069;-69
2022/03/23 04:29:10;;;;;;;;;;;;;;;;;;5095932;28;19908;-69
2022/03/23 04:31:36;;;;;;;;;;;;;;;;;;5095401;28;19915;-69
2022/03/23 04:34:02;;;;;;;;;;;;;;;;;;5076677;28;19955;-69
2022/03/23 04:36:28;;;;;;;;;;;;;;;;;;5077153;28;19914;-69
2022/03/23 04:38:54;;;;;;;;;;;;;;;;;;5076887;28;19916;-69
2022/03/23 04:41:20;;;;;;;;;;;;;;;;;;5095452;28;19908;-69
2022/03/23 04:43:46;;;;;;;;;;;;;;;;;;5095053;28;19958;-69
2022/03/23 04:46:12;;;;;;;;;;;;;;;;;;5094450;28;19908;-69
2022/03/23 04:48:38;;;;;;;;;;;;;;;;;;5094485;28;19912;-69
2022/03/23 04:51:05;;;;;;;;;;;;;;;;;;5094981;28;19915;-69
2022/03/23 04:53:30;;;;;;;;;;;;;;;;;;5076344;28;19974;-69
2022/03/23 04:55:56;;;;;;;;;;;;;;;;;;5095004;28;20303;-69
2022/03/23 04:58:24;;;;;;;;;;;;;;;;;;5094886;28;19923;-69
2022/03/23 05:00:50;;;;;;;;;;;;;;;;;;5094466;28;19908;-69
2022/03/23 05:03:16;;;;;;;;;;;;;;;;;;5094471;28;19919;-69
2022/03/23 05:05:43;;;;;;;;;;;;;;;;;;5076558;28;19908;-69
2022/03/23 05:08:09;;;;;;;;;;;;;;;;;;5094526;28;19912;-69
2022/03/23 05:10:35;;;;;;;;;;;;;;;;;;5094647;28;20360;-69
2022/03/23 05:13:01;;;;;;;;;;;;;;;;;;5076388;28;19962;-69
2022/03/23 05:15:27;;;;;;;;;;;;;;;;;;5094142;28;19989;-69
2022/03/23 05:17:53;;;;;;;;;;;;;;;;;;5094537;28;19908;-69
2022/03/23 05:20:20;;;;;;;;;;;;;;;;;;5094484;28;19912;-72
2022/03/23 05:22:46;;;;;;;;;;;;;;;;;;5093980;28;20018;-74
2022/03/23 05:25:13;;;;;;;;;;;;;;;;;;5094395;28;19908;-74
2022/03/23 05:27:39;;;;;;;;;;;;;;;;;;5094379;28;19948;-74
2022/03/23 05:30:05;;;;;;;;;;;;;;;;;;5093950;28;19943;-74
2022/03/23 05:32:31;;;;;;;;;;;;;;;;;;5094300;28;19954;-74
2022/03/23 05:34:57;;;;;;;;;;;;;;;;;;5075999;28;19995;-74
2022/03/23 05:37:23;;;;;;;;;;;;;;;;;;5094079;28;19915;-74
2022/03/23 05:39:49;;;;;;;;;;;;;;;;;;5094165;28;19912;-75
2022/03/23 05:42:15;;;;;;;;;;;;;;;;;;5075461;28;19908;-75
2022/03/23 05:44:41;;;;;;;;;;;;;;;;;;5076027;28;19908;-74
2022/03/23 05:47:07;;;;;;;;;;;;;;;;;;5094335;28;19908;-75
2022/03/23 05:49:33;;;;;;;;;;;;;;;;;;5093680;28;19908;-74
2022/03/23 05:51:59;;;;;;;;;;;;;;;;;;5094155;28;20367;-74
2022/03/23 05:54:25;;;;;;;;;;;;;;;;;;5094081;28;19909;-75
2022/03/23 05:56:51;;;;;;;;;;;;;;;;;;5093565;28;19970;-74
2022/03/23 05:59:17;;;;;;;;;;;;;;;;;;5090810;28;19955;-73
2022/03/23 06:01:43;;;;;;;;;;;;;;;;;;5093389;28;19912;-73
2022/03/23 06:04:09;;;;;;;;;;;;;;;;;;5093241;28;19928;-73
2022/03/23 06:06:35;;;;;;;;;;;;;;;;;;5093765;28;20326;-73
2022/03/23 06:09:01;;;;;;;;;;;;;;;;;;5093125;28;19915;-73
2022/03/23 06:11:27;;;;;;;;;;;;;;;;;;5092548;28;19908;-73
2022/03/23 06:13:53;;;;;;;;;;;;;;;;;;5093425;28;19908;-73
2022/03/23 06:16:19;;;;;;;;;;;;;;;;;;5092240;28;20080;-74
2022/03/23 06:18:45;;;;;;;;;;;;;;;;;;5070197;28;19912;-75
2022/03/23 06:21:11;;;;;;;;;;;;;;;;;;5093155;28;20367;-75
2022/03/23 06:23:37;;;;;;;;;;;;;;;;;;5093424;28;20292;-76
2022/03/23 06:26:03;;;;;;;;;;;;;;;;;;5086740;28;20352;-76
2022/03/23 06:28:29;;;;;;;;;;;;;;;;;;5073989;28;20015;-75
2022/03/23 06:30:55;;;;;;;;;;;;;;;;;;5092769;28;19915;-74
2022/03/23 06:33:21;;;;;;;;;;;;;;;;;;5092655;28;19908;-73
2022/03/23 06:35:47;;;;;;;;;;;;;;;;;;5089073;28;19912;-76
2022/03/23 06:38:13;;;;;;;;;;;;;;;;;;5074980;28;19919;-78
2022/03/23 06:40:39;;;;;;;;;;;;;;;;;;5088484;28;19914;-74
2022/03/23 06:43:05;;;;;;;;;;;;;;;;;;5091252;28;19912;-76
2022/03/23 06:45:31;;;;;;;;;;;;;;;;;;5091573;28;19954;-72
2022/03/23 06:47:57;;;;;;;;;;;;;;;;;;5091938;28;19916;-72
2022/03/23 06:50:23;;;;;;;;;;;;;;;;;;5090001;28;20402;-71
2022/03/23 06:52:49;;;;;;;;;;;;;;;;;;5089822;28;19912;-73
2022/03/23 06:55:15;;;;;;;;;;;;;;;;;;5085330;28;20310;-73
2022/03/23 06:57:41;;;;;;;;;;;;;;;;;;5090910;28;19953;-71
2022/03/23 07:00:13;;;;;;;;;;;;;;;;;;5085045;28;20359;-68
2022/03/23 07:02:40;;;;;;;;;;;;;;;;;;5091076;28;19920;-69
2022/03/23 07:05:07;;;;;;;;;;;;;;;;;;5073178;28;19918;-69
2022/03/23 07:07:33;;;;;;;;;;;;;;;;;;5091118;28;19909;-70
2022/03/23 07:09:59;;;;;;;;;;;;;;;;;;5092320;28;19919;-72
2022/03/23 07:12:24;;;;;;;;;;;;;;;;;;5095754;28;19908;-70
2022/03/23 07:14:50;;;;;;;;;;;;;;;;;;5094481;28;20360;-70
2022/03/23 07:17:17;;;;;;;;;;;;;;;;;;5085665;28;19915;-70
2022/03/23 07:19:43;;;;;;;;;;;;;;;;;;5095676;28;19908;-69
2022/03/23 07:22:11;;;;;;;;;;;;;;;;;;5092897;28;20370;-71
2022/03/23 07:24:37;;;;;;;;;;;;;;;;;;5094325;28;20017;-73
2022/03/23 07:27:03;;;;;;;;;;;;;;;;;;5095191;28;20400;-69
2022/03/23 07:29:29;;;;;;;;;;;;;;;;;;5085727;28;19965;-69
2022/03/23 07:31:55;;;;;;;;;;;;;;;;;;5095126;28;20361;-69
2022/03/23 07:34:21;;;;;;;;;;;;;;;;;;5094320;28;19969;-69
2022/03/23 07:36:48;;;;;;;;;;;;;;;;;;5094575;28;19992;-70
2022/03/23 07:39:20;;;;;;;;;;;;;;;;;;5095099;28;19952;-69
2022/03/23 07:41:49;;;;;;;;;;;;;;;;;;5094046;28;20300;-69
2022/03/23 07:44:15;;;;;;;;;;;;;;;;;;5076642;28;19981;-69
2022/03/23 07:46:41;;;;;;;;;;;;;;;;;;5076824;28;20011;-68
2022/03/23 07:49:07;;;;;;;;;;;;;;;;;;5094432;28;19933;-68
2022/03/23 07:51:34;;;;;;;;;;;;;;;;;;5095298;28;19909;-70
2022/03/23 07:54:00;;;;;;;;;;;;;;;;;;5075985;28;19915;-70
2022/03/23 07:56:26;;;;;;;;;;;;;;;;;;5094495;28;19908;-70
2022/03/23 07:59:47;;;;;;;;;;;;;;;;;;5123018;27;19916;-70
2022/03/23 08:03:57;;;;;;;;;;;;;;;;;;5090026;27;19913;-71
2022/03/23 08:06:23;;;;;;;;;;;;;;;;;;5090514;28;19958;-70
2022/03/23 08:08:49;;;;;;;;;;;;;;;;;;5090463;28;19912;-69
2022/03/23 08:11:15;;;;;;;;;;;;;;;;;;5089712;28;20396;-69
2022/03/23 08:14:18;;;;;;;;;;;;;;;;;;5090233;27;19938;-70
2022/03/23 08:17:54;;;;;;;;;;;;;;;;;;5088402;27;19916;-69
2022/03/23 08:21:50;;;;;;;;;;;;;;;;;;5088001;27;20006;-68
2022/03/23 08:26:16;;;;;;;;;;;;;;;;;;5109469;27;19926;-69
2022/03/23 08:28:42;;;;;;;;;;;;;;;;;;5110422;28;19927;-69
2022/03/23 08:32:18;;;;;;;;;;;;;;;;;;5110108;27;19923;-68
2022/03/23 08:37:18;;;;;;;;;;;;;;;;;;5108543;27;19912;-71
2022/03/23 08:39:45;;;;;;;;;;;;;;;;;;5110428;28;20042;-69
2022/03/23 08:43:30;;;;;;;;;;;;;;;;;;5110546;27;19912;-71
2022/03/23 08:45:56;;;;;;;;;;;;;;;;;;5107173;28;20002;-69
2022/03/23 08:48:22;;;;;;;;;;;;;;;;;;5108041;28;19908;-69
2022/03/23 08:50:48;;;;;;;;;;;;;;;;;;5108185;28;20435;-69
2022/03/23 08:58:07;;;;;;;;;;;;;;;;;;5110215;27;19916;-70
2022/03/23 09:00:33;;;;;;;;;;;;;;;;;;5111890;28;19916;-71
2022/03/23 09:02:59;;;;;;;;;;;;;;;;;;5118887;27;19962;-70
2022/03/23 09:05:25;;;;;;;;;;;;;;;;;;5106423;28;20280;-70
2022/03/23 09:08:51;;;;;;;;;;;;;;;;;;5108306;27;20388;-69
2022/03/23 09:11:17;;;;;;;;;;;;;;;;;;5106678;28;20462;-68
2022/03/23 09:17:31;;;;;;;;;;;;;;;;;;5109233;27;19916;-70
2022/03/23 09:20:16;;;;;;;;;;;;;;;;;;5147428;27;19922;-70
2022/03/23 09:22:42;;;;;;;;;;;;;;;;;;5151362;27;19955;-70
2022/03/23 09:25:08;;;;;;;;;;;;;;;;;;5151574;27;20364;-69
2022/03/23 09:27:34;;;;;;;;;;;;;;;;;;5129789;27;20375;-69
2022/03/23 09:30:00;;;;;;;;;;;;;;;;;;5133300;27;19908;-68
2022/03/23 09:32:26;;;;;;;;;;;;;;;;;;5133110;27;20339;-68
2022/03/23 09:34:52;;;;;;;;;;;;;;;;;;5151517;27;19911;-70
2022/03/23 09:41:06;;;;;;;;;;;;;;;;;;5110732;27;20394;-69
2022/03/23 09:43:32;;;;;;;;;;;;;;;;;;5092191;28;19920;-72
2022/03/23 09:45:58;;;;;;;;;;;;;;;;;;5110656;28;19908;-70
2022/03/23 09:48:26;;;;;;;;;;;;;;;;;;5121548;28;19918;-69
2022/03/23 09:53:20;;;;;;;;;;;;;;;;;;5066047;28;19921;-68
2022/03/23 09:55:46;;;;;;;;;;;;;;;;;;5066763;28;19940;-77
2022/03/23 09:58:32;;;;;;;;;;;;;;;;;;5090422;27;20404;-69
2022/03/23 10:00:59;;;;;;;;;;;;;;;;;;5090670;28;20007;-71
2022/03/23 10:03:25;;;;;;;;;;;;;;;;;;5086829;28;19991;-70
2022/03/23 10:07:49;;;;;;;;;;;;;;;;;;5090470;27;19916;-70
2022/03/23 10:13:34;;;;;;;;;;;;;;;;;;5088912;27;19912;-68
2022/03/23 10:16:41;;;;;;;;;;;;;;;;;;5110288;27;19912;-69
2022/03/23 10:19:50;;;;;;;;;;;;;;;;;;5131248;27;19918;-68
2022/03/23 10:22:16;;;;;;;;;;;;;;;;;;5128052;28;19916;-68
2022/03/23 10:24:42;;;;;;;;;;;;;;;;;;5114240;28;19986;-68
2022/03/23 10:31:17;;;;;;;;;;;;;;;;;;5109661;27;19919;-69
2022/03/23 10:34:55;;;;;;;;;;;;;;;;;;5170829;27;19959;-72
2022/03/23 10:43:25;;;;;;;;;;;;;;;;;;5085746;27;19920;-70
2022/03/23 10:45:51;;;;;;;;;;;;;;;;;;5086972;28;19995;-71
2022/03/23 10:48:17;;;;;;;;;;;;;;;;;;5080915;28;20007;-72
2022/03/23 10:50:43;;;;;;;;;;;;;;;;;;5081929;28;19915;-73
2022/03/23 10:53:09;;;;;;;;;;;;;;;;;;5088154;28;20377;-74
2022/03/23 10:56:32;;;;;;;;;;;;;;;;;;5089334;27;19926;-72
2022/03/23 10:58:59;;;;;;;;;;;;;;;;;;5083488;28;19912;-72
2022/03/23 11:01:26;;;;;;;;;;;;;;;;;;5089222;28;19919;-70
2022/03/23 11:18:39;;;;;;;;;;;;;;;;;;5090630;27;20381;-71
2022/03/23 11:23:30;;;;;;;;;;;;;;;;;;5090327;28;19923;-69
2022/03/23 11:25:56;;;;;;;;;;;;;;;;;;5089057;28;19959;-70
2022/03/23 11:28:22;;;;;;;;;;;;;;;;;;5089856;28;19912;-70
2022/03/23 11:30:48;;;;;;;;;;;;;;;;;;5085436;28;19970;-72
2022/03/23 11:34:56;;;;;;;;;;;;;;;;;;5087082;27;19923;-69
2022/03/23 11:37:23;;;;;;;;;;;;;;;;;;5083188;28;19948;-70
2022/03/23 11:40:29;;;;;;;;;;;;;;;;;;5090692;27;20388;-68
2022/03/23 11:44:49;;;;;;;;;;;;;;;;;;5090841;27;19916;-69
2022/03/23 11:47:14;;;;;;;;;;;;;;;;;;5085007;28;19952;-68
2022/03/23 11:49:40;;;;;;;;;;;;;;;;;;5087080;28;19946;-70
2022/03/23 11:57:35;;;;;;;;;;;;;;;;;;5089907;27;19923;-72
2022/03/23 12:00:26;;;;;;;;;;;;;;;;;;5089027;27;19966;-70
2022/03/23 12:02:52;;;;;;;;;;;;;;;;;;5090099;28;20372;-69
2022/03/23 12:05:24;;;;;;;3.45;1.58;;;;;;;;;;5088778;28;20473;-70
2022/03/23 12:07:51;;;;;;;7.30;1.67;;;;;;;;;;5088930;28;20463;-70
2022/03/23 12:10:19;;;;;;;5.40;2.25;;;;;;;;;;5089940;28;20201;-70
2022/03/23 12:12:46;;;;;;;6.97;3.00;;;;;;;;;;5088946;28;20021;-70
2022/03/23 12:15:22;;;;;;;6.45;2.35;;;;;;;;;;5088880;28;20033;-71
2022/03/23 12:17:54;;;;;;;5.28;1.83;;;;;;;;;;5089130;28;20104;-68
2022/03/23 12:22:05;;;;;;;11.35;4.00;;;;;;;;;;5070248;28;20863;-70
2022/03/23 12:29:28;;;;;;;6.45;2.38;;;;;;;;;;5110593;27;20455;-70
2022/03/23 12:32:05;;;;;;;10.80;3.67;;;;;;;;;;5104708;28;20028;-71
2022/03/23 12:34:32;;;;;;;16.20;3.25;;;;;;;;;;5105739;28;20029;-70
2022/03/23 12:37:11;;;;;;;6.40;2.08;;;;;;;;;;5087624;28;20019;-71
2022/03/23 12:39:39;;;;;;;5.57;1.90;;;;;;;;;;5104901;28;20058;-70
2022/03/23 12:42:12;;;;;;;9.52;2.70;;;;;;;;;;5109412;28;20039;-70
2022/03/23 12:44:38;;;;;;;7.03;3.05;;;;;;;;;;5106554;28;20119;-70
2022/03/23 12:59:47;;;;;;;5.40;1.90;;;;;;;;;;5110229;27;20397;-72
2022/03/23 13:02:20;;;;;;;3.83;1.40;;;;;;;;;;5110434;28;20031;-72
2022/03/23 13:04:46;;;;;;;;;;;;;;;;;;5111064;28;20417;-70
2022/03/23 13:07:28;;;;;;;4.93;2.15;;;;;;;;;;5110095;28;19904;-70
2022/03/23 13:09:57;;;;;;;5.13;1.85;;;;;;;;;;5110369;28;20420;-71
2022/03/23 13:12:27;;;;;;;6.82;1.92;;;;;;;;;;5110062;28;20030;-71
2022/03/23 13:14:53;;;;;;;4.30;1.27;;;;;;;;;;5110480;28;20024;-71
2022/03/23 13:17:20;;;;;;;3.90;1.42;;;;;;;;;;5110242;28;20099;-70
2022/03/23 13:19:47;;;;;;;4.63;1.17;;;;;;;;;;5109938;28;20443;-72
2022/03/23 13:22:13;;;;;;;3.97;1.38;;;;;;;;;;5108779;28;20107;-70
2022/03/23 13:24:39;;;;;;;4.10;1.42;;;;;;;;;;5110081;28;20074;-71
2022/03/23 13:27:12;;;;;;;5.43;1.55;;;;;;;;;;5109812;28;20555;-70
2022/03/23 13:29:38;;;;;;;13.77;1.92;;;;;;;;;;5110240;28;20048;-70
2022/03/23 13:32:06;;;;;;;5.78;2.10;;;;;;;;;;5109949;28;20099;-68
2022/03/23 13:34:37;;;;;;;5.28;1.55;;;;;;;;;;5108462;28;20020;-70
2022/03/23 13:37:03;;;;;;;5.80;1.77;;;;;;;;;;5108753;28;20077;-70
2022/03/23 13:39:29;;;;;;;7.10;2.50;;;;;;;;;;5108530;28;20118;-71
2022/03/23 13:44:56;;;;;;;4.97;1.63;;;;;;;;;;5110363;28;20039;-70
2022/03/23 13:47:35;;;;;;;4.68;1.30;;;;;;;;;;5109889;28;20047;-69
2022/03/23 13:50:02;;;;;;;1.75;1.08;;;;;;;;;;5108290;28;20028;-69
2022/03/23 13:52:29;;;;;;;12.70;3.08;;;;;;;;;;5109688;28;20028;-69
2022/03/23 13:54:59;;;;;;;4.55;2.13;;;;;;;;;;5107890;28;20024;-72
2022/03/23 13:57:29;;;;;;;7.75;2.33;;;;;;;;;;5108185;28;20554;-69
2022/03/23 13:59:55;;;;;;;12.43;2.63;;;;;;;;;;5108932;28;20034;-70
2022/03/23 14:02:25;;;;;;;4.80;1.42;;;;;;;;;;5109018;28;20016;-72
2022/03/23 14:04:51;;;;;;;7.63;1.42;;;;;;;;;;5109762;28;20468;-71
2022/03/23 14:07:17;;;;;;;5.57;1.45;;;;;;;;;;5109719;28;20027;-71
2022/03/23 14:09:44;;;;;;;5.53;1.80;;;;;;;;;;5103591;28;20376;-69
2022/03/23 14:12:11;;;;;;;3.42;1.20;;;;;;;;;;5096026;28;20099;-68
2022/03/23 14:14:39;;;;;;;1.95;1.00;;;;;;;;;;5096188;28;20154;-67
2022/03/23 14:17:15;;;;;;;3.90;1.30;;;;;;;;;;5095821;28;20024;-67
2022/03/23 14:19:42;;;;;;;4.22;1.30;;;;;;;;;;5096336;28;20139;-68
2022/03/23 14:22:10;;;;;;;7.70;2.22;;;;;;;;;;5096295;28;20020;-69
2022/03/23 14:24:37;;;;;;;3.42;1.63;;;;;;;;;;5095702;28;20128;-67
2022/03/23 14:27:12;;;;;;;4.50;1.40;;;;;;;;;;5080632;28;20036;-67
2022/03/23 14:29:39;;;;;;;6.70;1.38;;;;;;;;;;5079103;28;20099;-67
2022/03/23 14:32:05;;;;;;;6.13;1.58;;;;;;;;;;5094477;28;20024;-67
2022/03/23 14:34:36;;;;;;;10.38;2.22;;;;;;;;;;5095942;28;20016;-68
2022/03/23 14:37:06;;;;;;;6.63;3.03;;;;;;;;;;5095522;28;20031;-68
2022/03/23 14:39:52;;;;;;;2.22;1.20;;;;;;;;;;5094440;28;20396;-67
2022/03/23 14:42:19;;;;;;;3.85;1.48;;;;;;;;;;5095622;28;20024;-67
2022/03/23 14:44:46;;;;;;;2.55;1.05;;;;;;;;;;5095341;28;20028;-67
2022/03/23 14:47:13;;;;;;;3.25;1.15;;;;;;;;;;5094436;28;20093;-68
2022/03/23 14:49:41;;;;;;;6.15;1.50;;;;;;;;;;5095499;28;20023;-67
2022/03/23 14:52:08;;;;;;;3.53;1.30;;;;;;;;;;5095185;28;20071;-67
2022/03/23 14:54:39;;;;;;;9.25;6.22;;;;;;;;;;5095553;28;20496;-67
2022/03/23 14:57:09;;;;;;;4.88;1.65;;;;;;;;;;5095448;28;20024;-67
2022/03/23 14:59:44;;;;;;;2.53;1.50;;;;;;;;;;5094577;28;20058;-68
2022/03/23 15:02:15;;;;;;;3.35;1.60;;;;;;;;;;5093953;28;20028;-68
2022/03/23 15:04:44;;;;;;;3.50;1.40;;;;;;;;;;5095247;28;20048;-68
2022/03/23 15:15:25;;;;;;;8.93;2.38;;;;;;;;;;5095182;28;20438;-68
2022/03/23 15:17:54;;;;;;;5.18;2.63;;;;;;;;;;5088393;28;20112;-68
2022/03/23 15:20:20;;;;;;;5.25;2.55;;;;;;;;;;5075000;28;20031;-68
2022/03/23 15:22:46;;;;;;;7.13;3.33;;;;;;;;;;5089411;28;20027;-68
2022/03/23 15:25:13;;;;;;;4.88;2.40;;;;;;;;;;5095000;28;20100;-68
2022/03/23 15:27:39;;;;;;;5.60;1.63;;;;;;;;;;5083255;28;20048;-68
2022/03/23 15:30:09;;;;;;;3.95;1.70;;;;;;;;;;5074225;28;20033;-68
2022/03/23 15:34:09;;;;;;;6.43;2.03;;;;;;;;;;5111092;27;20450;-67
2022/03/23 15:36:35;;;;;;;4.43;1.50;;;;;;;;;;5111413;28;20070;-67
2022/03/23 15:39:01;;;;;;;2.40;1.55;;;;;;;;;;5110314;28;20023;-67
2022/03/23 15:41:28;;;;;;;5.78;2.22;;;;;;;;;;5108438;28;20545;-67
2022/03/23 15:43:56;;;;;;;5.22;1.60;;;;;;;;;;5109765;28;20023;-67
2022/03/23 15:46:29;;;;;;;5.57;2.10;;;;;;;;;;5109616;28;20028;-67
2022/03/23 15:49:57;;;;;;;8.50;2.35;;;;;;;;;;5111350;27;20332;-67
2022/03/23 15:52:25;;;;;;;7.38;2.58;;;;;;;;;;5111434;28;20051;-67
2022/03/23 15:54:51;;;;;;;8.13;2.60;;;;;;;;;;5109397;28;20103;-68
2022/03/23 15:57:17;;;;;;;6.88;2.55;;;;;;;;;;5111036;28;20024;-68
2022/03/23 15:59:43;;;;;;;7.35;3.10;;;;;;;;;;5110957;28;20055;-68
2022/03/23 16:02:10;;;;;;;5.65;1.70;;;;;;;;;;5109161;28;20077;-68
2022/03/23 16:04:36;;;;;;;6.45;2.50;;;;;;;;;;5109541;28;20388;-68
2022/03/23 16:07:44;;;;;;;10.60;2.67;;;;;;;;;;5111489;27;20372;-66
2022/03/23 16:11:00;;;;;;;6.22;2.53;;;;;;;;;;5111439;27;20477;-67
2022/03/23 16:13:59;;;;;;;8.07;2.20;;;;;;;;;;5111679;27;20485;-67
2022/03/23 16:16:26;;;;;;;6.65;2.60;;;;;;;;;;5111006;28;20028;-67
2022/03/23 16:18:55;;;;;;;8.10;3.85;;;;;;;;;;5124706;28;20490;-67
2022/03/23 16:25:48;;;;;;;9.93;4.93;;;;;;;;;;5131667;27;20122;-68
2022/03/23 16:28:15;;;;;;;5.10;2.85;;;;;;;;;;5130194;28;20023;-68
2022/03/23 16:30:41;;;;;;;9.07;4.13;;;;;;;;;;5131146;28;20064;-67
2022/03/23 16:33:08;;;;;;;8.18;3.38;;;;;;;;;;5131290;28;20072;-67
2022/03/23 16:40:21;;;;;;;36.25;16.55;;;;;;;;;;5109679;27;20862;-67
2022/03/23 16:42:48;;;;;;;13.02;6.18;;;;;;;;;;5110164;28;20027;-67
2022/03/23 16:45:14;;;;;;;11.23;4.82;;;;;;;;;;5110443;28;20051;-67
2022/03/23 16:49:19;;;;;;;10.18;6.20;;;;;;;;;;5111880;27;20412;-68
2022/03/23 16:51:46;;;;;;;9.10;4.40;;;;;;;;;;5110705;28;20038;-66
2022/03/23 16:54:17;;;;;;;7.25;3.22;;;;;;;;;;5109655;28;20424;-66
2022/03/23 16:56:43;;;;;;;5.25;2.20;;;;;;;;;;5111216;28;20020;-66
2022/03/23 17:00:34;;;;;;;7.60;3.50;;;;;;;;;;5111845;27;20388;-68
2022/03/23 17:14:01;;;;;;;;;;;;;;;;;;5111505;28;19910;-67
2022/03/23 17:16:27;;;;;;;;;;;;;;;;;;5111307;28;19911;-68
2022/03/23 17:18:53;;;;;;;;;;;;;;;;;;5109713;28;20317;-67
2022/03/23 17:21:19;;;;;;;;;;;;;;;;;;5111314;28;19911;-67
2022/03/23 17:23:46;;;;;;;;;;;;;;;;;;5111175;28;19904;-68
2022/03/23 17:29:26;;;;;;;;;;;;;;;;;;5091615;27;19916;-68
2022/03/23 17:31:52;;;;;;;;;;;;;;;;;;5091484;28;20416;-68
2022/03/23 17:34:18;;;;;;;;;;;;;;;;;;5090836;28;19908;-68
2022/03/23 17:37:20;;;;;;;;;;;;;;;;;;5112504;27;19923;-68
2022/03/23 17:39:46;;;;;;;;;;;;;;;;;;5110022;28;19962;-67
2022/03/23 17:42:13;;;;;;;;;;;;;;;;;;5111648;28;20360;-68
2022/03/23 17:48:10;;;;;;;;;;;;;;;;;;5111328;27;19923;-68
2022/03/23 17:50:36;;;;;;;;;;;;;;;;;;5111671;28;20003;-68
2022/03/23 17:53:02;;;;;;;;;;;;;;;;;;5111535;28;20396;-68
2022/03/23 17:55:28;;;;;;;;;;;;;;;;;;5109922;28;20379;-67
2022/03/23 18:00:54;;;;;;;;;;;;;;;;;;5112135;27;19916;-68
2022/03/23 18:03:20;;;;;;;;;;;;;;;;;;5110245;28;20326;-68
2022/03/23 18:05:46;;;;;;;;;;;;;;;;;;5111620;28;19908;-68
2022/03/23 18:08:12;;;;;;;;;;;;;;;;;;5111245;28;20307;-67
2022/03/23 18:11:58;;;;;;;;;;;;;;;;;;5111912;27;20376;-68
2022/03/23 18:14:24;;;;;;;;;;;;;;;;;;5110399;28;20006;-68
2022/03/23 18:16:50;;;;;;;;;;;;;;;;;;5110649;28;19908;-67
2022/03/23 18:19:18;;;;;;;;;;;;;;;;;;5111523;28;19908;-68
2022/03/23 18:23:55;;;;;;;;;;;;;;;;;;5152376;27;19918;-68
2022/03/23 18:26:22;;;;;;;;;;;;;;;;;;5152649;27;19955;-68
2022/03/23 18:28:48;;;;;;;;;;;;;;;;;;5152182;27;19930;-67
2022/03/23 18:31:15;;;;;;;;;;;;;;;;;;5134240;27;19907;-67
2022/03/23 18:33:41;;;;;;;;;;;;;;;;;;5152537;27;19911;-67
2022/03/23 18:36:07;;;;;;;;;;;;;;;;;;5152144;27;20004;-67
2022/03/23 18:38:34;;;;;;;;;;;;;;;;;;5133814;27;20295;-68
2022/03/23 18:41:00;;;;;;;;;;;;;;;;;;5152369;27;19908;-68
2022/03/23 18:43:26;;;;;;;;;;;;;;;;;;5133363;27;19995;-67
2022/03/23 18:45:55;;;;;;;;;;;;;;;;;;5152394;27;19907;-67